Time;durP1;ratioP1;P1;durP2;ratioP2;P2;SDS_P1;SDS_P2;PMS_P1;PMS_P2;Temp;Humidity;BMP_temperature;BMP_pressure;BME280_temperature;BME280_humidity;BME280_pressure;Samples;Min_cycle;Max_cycle;Signal;HPM_P1;HPM_P2
2021/06/10 00:00:03;;;;;;;6.30;3.53;;;;;;;17.01;66.42;100997.69;4972485;28;20031;-72
2021/06/10 00:02:37;;;;;;;7.78;4.20;;;;;;;16.89;67.63;101000.66;4971857;28;20474;-72
2021/06/10 00:05:05;;;;;;;7.22;5.38;;;;;;;16.80;69.59;100992.91;4972149;28;20038;-72
2021/06/10 00:07:30;;;;;;;5.38;4.05;;;;;;;16.72;67.21;100995.72;4972256;28;20703;-72
2021/06/10 00:09:55;;;;;;;5.95;4.18;;;;;;;16.70;67.09;100996.66;4954723;28;20138;-72
2021/06/10 00:12:21;;;;;;;4.35;3.55;;;;;;;16.59;68.00;100994.25;4971779;28;20073;-72
2021/06/10 00:14:47;;;;;;;7.75;4.28;;;;;;;16.47;68.16;100990.09;4972181;28;20066;-72
2021/06/10 00:17:13;;;;;;;5.40;3.63;;;;;;;16.45;69.17;100997.22;4972457;28;20035;-72
2021/06/10 00:19:38;;;;;;;6.45;4.80;;;;;;;16.16;71.92;100997.88;4972105;28;20421;-72
2021/06/10 00:22:04;;;;;;;6.03;4.40;;;;;;;16.08;70.79;100994.50;4971641;28;20043;-72
2021/06/10 00:24:29;;;;;;;5.63;3.90;;;;;;;16.14;70.32;101005.94;4971832;28;20042;-72
2021/06/10 00:26:55;;;;;;;6.03;4.20;;;;;;;16.14;70.19;101005.94;4972001;28;20066;-72
2021/06/10 00:29:21;;;;;;;6.45;4.20;;;;;;;16.15;70.12;101002.34;4971791;28;20034;-72
2021/06/10 00:31:47;;;;;;;5.38;4.30;;;;;;;16.10;71.42;101004.22;4965554;28;20039;-72
2021/06/10 00:34:14;;;;;;;5.90;4.28;;;;;;;16.04;71.00;101001.69;4972149;28;20121;-72
2021/06/10 00:36:39;;;;;;;4.45;3.97;;;;;;;16.03;70.91;101005.25;4972056;28;20038;-71
2021/06/10 00:39:04;;;;;;;5.07;3.90;;;;;;;16.04;70.85;101007.03;4971968;28;20037;-71
2021/06/10 00:41:32;;;;;;;5.00;4.38;;;;;;;15.98;71.44;100999.16;4971965;28;20423;-71
2021/06/10 00:43:59;;;;;;;8.23;5.68;;;;;;;16.02;70.81;100997.31;4971678;28;20103;-72
2021/06/10 00:46:25;;;;;;;6.13;5.22;;;;;;;16.02;72.00;100998.19;4971966;28;20031;-71
2021/06/10 00:48:50;;;;;;;6.30;4.70;;;;;;;15.99;71.24;100993.81;4971902;28;20045;-71
2021/06/10 00:51:15;;;;;;;8.48;5.35;;;;;;;16.00;70.79;100990.22;4971897;28;20553;-72
2021/06/10 00:53:41;;;;;;;6.72;5.15;;;;;;;15.94;71.04;100993.03;4951047;28;20066;-71
2021/06/10 00:56:06;;;;;;;5.93;5.10;;;;;;;15.91;71.25;101003.75;4971408;28;20538;-71
2021/06/10 00:58:32;;;;;;;7.53;5.13;;;;;;;15.93;71.16;101001.06;4963995;28;20126;-71
2021/06/10 01:00:59;;;;;;;8.20;4.85;;;;;;;15.90;71.23;101003.75;4967455;28;20044;-71
2021/06/10 01:03:24;;;;;;;6.45;5.18;;;;;;;15.74;72.42;101008.50;4975209;28;20034;-72
2021/06/10 01:05:53;;;;;;;7.25;4.85;;;;;;;15.69;72.04;101002.41;4975265;28;20520;-72
2021/06/10 01:08:38;;;;;;;6.90;4.75;;;;;;;15.73;71.99;101004.97;4975193;28;20038;-72
2021/06/10 01:11:31;;;;;;;7.03;5.30;;;;;;;15.74;70.62;101005.84;4955016;28;20047;-72
2021/06/10 01:14:18;;;;;;;5.30;4.65;;;;;;;15.73;71.41;101004.97;4966208;28;20473;-72
2021/06/10 01:16:45;;;;;;;6.72;5.63;;;;;;;15.71;70.87;101004.13;4971362;28;20499;-71
2021/06/10 01:19:18;;;;;;;6.20;5.00;;;;;;;15.65;71.42;101009.56;4975263;28;20031;-71
2021/06/10 01:21:45;;;;;;;5.72;4.80;;;;;;;15.67;71.61;101010.41;4974790;28;20558;-71
2021/06/10 01:24:28;;;;;;;9.02;5.47;;;;;;;15.61;72.20;101017.63;4974914;28;20066;-71
2021/06/10 01:27:18;;;;;;;5.65;5.00;;;;;;;15.59;71.89;101014.09;4975017;28;20038;-71
2021/06/10 01:29:45;;;;;;;6.10;4.70;;;;;;;15.54;71.69;101014.22;4974908;28;20039;-71
2021/06/10 01:32:11;;;;;;;6.72;5.55;;;;;;;15.48;71.97;101012.53;4971303;28;20105;-70
2021/06/10 01:34:36;;;;;;;7.50;5.35;;;;;;;15.47;72.20;101009.91;4974855;28;20490;-71
2021/06/10 01:37:03;;;;;;;6.90;5.30;;;;;;;15.48;72.79;101006.31;4972420;28;20499;-71
2021/06/10 01:39:29;;;;;;;7.80;6.20;;;;;;;15.41;73.76;101002.91;4972304;28;20114;-71
2021/06/10 01:41:56;;;;;;;6.53;5.63;;;;;;;15.37;73.61;101009.19;4974349;28;20030;-71
2021/06/10 01:44:22;;;;;;;6.70;5.97;;;;;;;15.33;73.20;101007.50;4974674;28;20442;-70
2021/06/10 01:46:50;;;;;;;7.05;6.32;;;;;;;15.35;73.71;101008.34;4974589;28;20068;-71
2021/06/10 01:49:17;;;;;;;7.80;5.85;;;;;;;15.39;73.57;101007.38;4974628;28;20031;-71
2021/06/10 01:51:45;;;;;;;6.68;5.97;;;;;;;15.46;73.22;101002.84;4974197;28;20058;-71
2021/06/10 01:54:12;;;;;;;8.20;6.13;;;;;;;15.47;73.26;101005.44;4974369;28;20399;-71
2021/06/10 01:56:40;;;;;;;7.32;5.63;;;;;;;15.52;73.32;101002.72;4974404;28;20034;-70
2021/06/10 01:59:06;;;;;;;8.73;5.78;;;;;;;15.53;72.95;100999.13;4974492;28;20129;-71
2021/06/10 02:01:32;;;;;;;8.32;6.40;;;;;;;15.54;73.26;100998.25;4974150;28;20201;-71
2021/06/10 02:03:59;;;;;;;6.85;6.10;;;;;;;15.58;72.81;100997.25;4974096;28;20088;-70
2021/06/10 02:06:25;;;;;;;8.65;6.53;;;;;;;15.61;72.66;100991.88;4974315;28;20045;-71
2021/06/10 02:08:51;;;;;;;11.52;7.03;;;;;;;15.59;72.95;100988.41;4974149;28;20055;-71
2021/06/10 02:11:18;;;;;;;6.90;5.70;;;;;;;15.62;72.54;100988.34;4973761;28;20133;-71
2021/06/10 02:13:44;;;;;;;7.88;6.65;;;;;;;15.62;72.96;100993.66;4973888;28;20019;-71
2021/06/10 02:16:11;;;;;;;8.77;6.93;;;;;;;15.64;72.90;100997.16;4974070;28;20439;-72
2021/06/10 02:18:40;;;;;;;6.18;5.43;;;;;;;15.66;72.81;100984.69;4973979;28;20101;-71
2021/06/10 02:21:08;;;;;;;6.97;5.90;;;;;;;15.64;72.43;100981.19;4973805;28;20042;-71
2021/06/10 02:23:39;;;;;;;7.20;6.15;;;;;;;15.66;72.56;100992.66;4966708;28;20568;-71
2021/06/10 02:26:06;;;;;;;7.13;5.95;;;;;;;15.70;72.05;100986.44;4970147;28;20035;-70
2021/06/10 02:28:32;;;;;;;7.10;6.10;;;;;;;15.61;72.23;100991.00;4956262;28;20042;-70
2021/06/10 02:30:59;;;;;;;11.55;7.43;;;;;;;15.47;73.23;100988.63;4973690;28;20034;-71
2021/06/10 02:33:25;;;;;;;9.45;7.00;;;;;;;15.37;73.72;100987.03;4973324;28;20077;-71
2021/06/10 02:35:50;;;;;;;8.27;7.38;;;;;;;15.33;73.96;100989.75;4973464;28;20663;-71
2021/06/10 02:38:18;;;;;;;8.68;6.75;;;;;;;15.36;73.74;100990.63;4973339;28;20039;-71
2021/06/10 02:40:48;;;;;;;8.60;7.05;;;;;;;15.33;73.54;100994.22;4952704;29;20510;-71
2021/06/10 02:43:13;;;;;;;9.90;7.50;;;;;;;15.26;73.69;100990.78;4969879;28;20093;-71
2021/06/10 02:45:40;;;;;;;9.45;7.75;;;;;;;15.24;73.89;100994.38;4973417;28;20039;-71
2021/06/10 02:48:06;;;;;;;9.30;7.32;;;;;;;15.31;73.97;100998.66;4973466;28;20117;-70
2021/06/10 02:50:33;;;;;;;10.48;8.50;;;;;;;15.31;74.06;100988.91;4973593;28;20398;-71
2021/06/10 02:53:00;;;;;;;10.50;8.20;;;;;;;15.28;74.54;100978.34;4973003;28;20030;-71
2021/06/10 02:55:29;;;;;;;11.48;8.23;;;;;;;15.30;73.90;100981.84;4973146;28;20062;-71
2021/06/10 02:57:56;;;;;;;8.60;7.70;;;;;;;15.28;74.09;100973.00;4968811;28;20073;-71
2021/06/10 03:00:25;;;;;;;9.98;7.70;;;;;;;15.28;74.45;100973.00;4972695;28;20118;-71
2021/06/10 03:02:51;;;;;;;10.52;7.80;;;;;;;15.32;74.25;100977.34;4968913;28;20031;-70
2021/06/10 03:05:17;;;;;;;10.10;7.72;;;;;;;15.25;74.03;100981.06;4972835;28;20121;-71
2021/06/10 03:07:45;;;;;;;7.80;7.00;;;;;;;15.22;73.66;100982.88;4972838;28;20035;-71
2021/06/10 03:10:12;;;;;;;9.57;7.53;;;;;;;15.21;73.95;100986.44;4973022;28;20105;-71
2021/06/10 03:12:40;;;;;;;8.35;6.70;;;;;;;15.15;73.81;100984.78;4969144;28;20035;-71
2021/06/10 03:15:08;;;;;;;11.48;8.32;;;;;;;15.09;74.82;100979.56;4972996;28;20102;-71
2021/06/10 03:17:34;;;;;;;11.32;8.60;;;;;;;15.04;76.24;100979.66;4972880;28;20030;-71
2021/06/10 03:20:00;;;;;;;12.40;9.07;;;;;;;15.09;76.30;100979.56;4972825;28;20046;-71
2021/06/10 03:22:26;;;;;;;11.45;9.70;;;;;;;15.07;76.83;100984.03;4965117;28;20034;-71
2021/06/10 03:24:52;;;;;;;11.43;9.07;;;;;;;15.16;75.64;100985.66;4972695;28;20042;-71
2021/06/10 03:27:19;;;;;;;9.85;8.50;;;;;;;15.20;75.40;100990.91;4972916;28;20062;-71
2021/06/10 03:29:44;;;;;;;12.43;8.13;;;;;;;15.28;74.75;100991.63;4972646;28;20398;-71
2021/06/10 03:32:10;;;;;;;10.25;9.05;;;;;;;15.31;74.63;100993.34;4967089;28;20031;-71
2021/06/10 03:34:37;;;;;;;11.02;8.45;;;;;;;15.36;74.94;100986.16;4972674;28;20130;-71
2021/06/10 03:37:03;;;;;;;11.23;9.32;;;;;;;15.38;76.07;100983.47;4955453;28;20050;-71
2021/06/10 03:39:29;;;;;;;10.65;8.50;;;;;;;15.43;75.07;100987.81;4972659;28;20066;-71
2021/06/10 03:41:56;;;;;;;10.52;8.80;;;;;;;15.46;75.50;100986.88;4972266;28;20084;-70
2021/06/10 03:44:23;;;;;;;11.60;10.15;;;;;;;15.48;75.64;100985.94;4972430;28;20518;-71
2021/06/10 03:46:49;;;;;;;11.27;8.63;;;;;;;15.56;74.55;100988.44;4972497;28;20074;-71
2021/06/10 03:49:15;;;;;;;11.50;9.32;;;;;;;15.66;74.05;100990.00;4955130;28;20041;-72
2021/06/10 03:51:40;;;;;;;8.82;7.93;;;;;;;15.80;73.92;100981.81;4972006;28;20502;-71
2021/06/10 03:54:07;;;;;;;11.23;8.50;;;;;;;15.93;73.11;100977.97;4972254;28;20038;-72
2021/06/10 03:56:33;;;;;;;13.25;8.85;;;;;;;15.95;73.29;100978.78;4972343;28;20050;-71
2021/06/10 03:58:58;;;;;;;11.70;8.75;;;;;;;16.00;73.37;100978.69;4972432;28;20065;-71
2021/06/10 04:01:24;;;;;;;11.30;8.25;;;;;;;16.03;73.24;100978.63;4972120;28;20467;-72
2021/06/10 04:03:49;;;;;;;15.48;10.95;;;;;;;16.10;73.54;100982.91;4971959;28;20066;-71
2021/06/10 04:06:16;;;;;;;14.13;10.20;;;;;;;16.20;72.85;100983.59;4969229;28;20399;-71
2021/06/10 04:08:42;;;;;;;12.85;9.15;;;;;;;16.35;72.61;100979.72;4971888;28;20105;-71
2021/06/10 04:11:08;;;;;;;13.50;9.98;;;;;;;16.43;72.14;100977.75;4970250;28;20627;-71
2021/06/10 04:13:33;;;;;;;14.23;9.23;;;;;;;16.51;72.08;100982.91;4971793;28;20038;-71
2021/06/10 04:15:59;;;;;;;14.32;9.40;;;;;;;16.54;72.22;100981.03;4972162;28;20506;-71
2021/06/10 04:18:24;;;;;;;11.50;8.90;;;;;;;16.62;71.67;100981.72;4972157;28;20114;-71
2021/06/10 04:20:51;;;;;;;13.60;10.35;;;;;;;16.71;72.01;100979.75;4972062;28;20043;-71
2021/06/10 04:23:17;;;;;;;12.77;10.00;;;;;;;16.75;71.82;100981.44;4971705;28;20041;-71
2021/06/10 04:25:43;;;;;;;13.55;9.25;;;;;;;16.76;71.45;100975.19;4972238;28;20391;-71
2021/06/10 04:28:08;;;;;;;12.10;9.25;;;;;;;16.81;71.72;100983.97;4972091;28;20043;-71
2021/06/10 04:30:34;;;;;;;11.25;10.13;;;;;;;16.81;71.65;100979.53;4972109;28;20046;-71
2021/06/10 04:32:59;;;;;;;14.35;10.68;;;;;;;16.89;71.51;100981.13;4965617;28;20043;-71
2021/06/10 04:35:25;;;;;;;16.75;10.95;;;;;;;16.96;71.34;100978.28;4975068;28;20042;-71
2021/06/10 04:37:51;;;;;;;12.23;9.40;;;;;;;17.03;71.63;100981.69;4975754;28;20066;-71
2021/06/10 04:40:17;;;;;;;13.10;9.02;;;;;;;17.17;71.08;100986.63;4976059;28;20074;-70
2021/06/10 04:42:42;;;;;;;17.95;12.35;;;;;;;17.17;71.51;100981.31;4975367;28;20050;-72
2021/06/10 04:45:09;;;;;;;16.80;14.38;;;;;;;17.23;71.86;100978.47;4975570;28;20037;-71
2021/06/10 04:47:34;;;;;;;16.65;12.60;;;;;;;17.33;71.76;100979.97;4975568;28;20137;-70
2021/06/10 04:50:00;;;;;;;15.57;13.60;;;;;;;17.47;71.15;100975.13;4975587;28;20115;-71
2021/06/10 04:52:25;;;;;;;15.93;11.85;;;;;;;17.66;70.86;100983.50;4971702;28;20102;-71
2021/06/10 04:54:50;;;;;;;13.73;11.05;;;;;;;17.76;70.41;100984.09;4971911;28;20065;-71
2021/06/10 04:57:16;;;;;;;17.17;11.45;;;;;;;17.92;70.01;100974.78;4975472;28;20113;-71
2021/06/10 04:59:41;;;;;;;17.10;11.02;;;;;;;18.09;69.80;100976.06;4975497;28;20077;-71
2021/06/10 05:02:06;;;;;;;23.58;18.20;;;;;;;18.18;69.50;100979.34;4975091;28;20034;-72
2021/06/10 05:04:32;;;;;;;16.88;13.10;;;;;;;18.29;69.31;100979.00;4957958;28;20042;-71
2021/06/10 05:06:57;;;;;;;14.40;12.68;;;;;;;18.47;68.83;100971.31;4957970;28;20042;-71
2021/06/10 05:09:23;;;;;;;12.20;10.85;;;;;;;18.71;68.11;100972.34;4975258;28;20038;-71
2021/06/10 05:11:48;;;;;;;15.32;11.98;;;;;;;18.90;68.13;100964.63;4971277;28;20042;-71
2021/06/10 05:14:15;;;;;;;13.68;11.20;;;;;;;19.12;67.62;100965.63;4975234;28;20045;-71
2021/06/10 05:16:41;;;;;;;15.40;12.48;;;;;;;19.40;67.35;100970.88;4958139;28;20050;-71
2021/06/10 05:19:06;;;;;;;15.43;12.00;;;;;;;19.63;66.81;100967.38;4975241;28;20035;-71
2021/06/10 05:21:31;;;;;;;15.68;13.85;;;;;;;19.85;66.01;100971.94;4974836;28;20491;-71
2021/06/10 05:23:57;;;;;;;17.58;14.82;;;;;;;20.06;65.44;100965.78;4971097;28;20030;-72
2021/06/10 05:26:23;;;;;;;14.60;12.75;;;;;;;20.18;65.64;100971.63;4974858;28;20558;-71
2021/06/10 05:28:50;;;;;;;14.45;11.77;;;;;;;20.11;65.76;100961.09;4974848;28;20074;-71
2021/06/10 05:31:15;;;;;;;22.20;19.85;;;;;;;20.26;65.29;100969.50;4974743;28;20034;-72
2021/06/10 05:33:41;;;;;;;14.65;13.25;;;;;;;20.32;65.20;100967.44;4974522;28;20415;-71
2021/06/10 05:36:06;;;;;;;14.27;12.77;;;;;;;20.38;65.89;100957.41;4971030;28;20043;-71
2021/06/10 05:38:33;;;;;;;20.35;16.40;;;;;;;20.30;65.56;100971.09;4974712;28;20035;-71
2021/06/10 05:40:58;;;;;;;17.50;15.70;;;;;;;20.39;65.18;100970.75;4967162;28;20118;-71
2021/06/10 05:43:23;;;;;;;15.60;13.90;;;;;;;20.48;65.12;100969.50;4974179;28;20649;-71
2021/06/10 05:45:52;;;;;;;16.17;14.48;;;;;;;20.55;65.29;100966.53;4973974;28;20035;-71
2021/06/10 05:48:18;;;;;;;17.15;15.43;;;;;;;20.66;64.93;100962.56;4974620;28;20038;-71
2021/06/10 05:50:47;;;;;;;14.40;12.98;;;;;;;20.86;64.04;100965.28;4974396;28;20027;-71
2021/06/10 05:53:15;;;;;;;15.70;14.13;;;;;;;20.99;64.18;100962.97;4974238;28;20038;-70
2021/06/10 05:55:42;;;;;;;14.07;12.65;;;;;;;21.07;64.17;100957.28;4974446;28;20041;-70
2021/06/10 05:58:07;;;;;;;19.15;17.17;;;;;;;21.20;63.10;100962.03;4974474;28;20030;-71
2021/06/10 06:00:33;;;;;;;23.98;21.77;;;;;;;21.44;62.42;100968.16;4974576;28;20402;-71
2021/06/10 06:03:02;;;;;;;14.68;13.27;;;;;;;21.65;61.74;100960.97;4973934;28;20418;-71
2021/06/10 06:05:27;;;;;;;13.63;12.38;;;;;;;21.65;62.19;100973.53;4974241;28;20042;-71
2021/06/10 06:07:52;;;;;;;14.13;12.55;;;;;;;21.37;62.79;100958.59;4974430;28;20394;-71
2021/06/10 06:10:19;;;;;;;15.50;13.43;;;;;;;21.26;62.69;100974.31;4974168;28;20499;-71
2021/06/10 06:12:47;;;;;;;15.20;13.63;;;;;;;21.18;63.42;100966.59;4973753;28;20031;-71
2021/06/10 06:15:13;;;;;;;12.90;11.57;;;;;;;21.13;63.29;100967.72;4974109;28;20030;-71
2021/06/10 06:17:38;;;;;;;13.60;12.23;;;;;;;21.07;63.43;100968.00;4974005;28;20166;-71
2021/06/10 06:20:04;;;;;;;13.70;12.40;;;;;;;21.02;63.29;100969.06;4974015;28;20051;-71
2021/06/10 06:22:30;;;;;;;13.18;11.88;;;;;;;21.22;63.13;100968.22;4973479;28;20125;-71
2021/06/10 06:24:55;;;;;;;11.90;10.80;;;;;;;21.44;62.90;100970.84;4973796;28;20059;-71
2021/06/10 06:27:21;;;;;;;14.43;12.85;;;;;;;21.67;62.17;100980.56;4973900;28;20633;-71
2021/06/10 06:29:46;;;;;;;12.95;11.57;;;;;;;21.77;61.37;100978.34;4946381;28;20047;-71
2021/06/10 06:32:12;;;;;;;13.65;12.25;;;;;;;21.86;60.73;100983.28;4967938;28;20025;-71
2021/06/10 06:34:37;;;;;;;15.05;11.52;;;;;;;21.96;61.24;100982.88;4973930;28;20106;-70
2021/06/10 06:37:03;;;;;;;12.68;11.35;;;;;;;21.93;60.29;100985.69;4973557;28;20523;-71
2021/06/10 06:39:28;;;;;;;14.25;12.65;;;;;;;21.96;59.97;100996.31;4973544;28;20391;-71
2021/06/10 06:41:53;;;;;;;18.08;11.90;;;;;;;21.97;60.19;100987.28;4973219;28;20043;-71
2021/06/10 06:44:19;;;;;;;14.88;13.38;;;;;;;22.07;60.05;100988.59;4973397;28;20031;-71
2021/06/10 06:46:44;;;;;;;15.85;14.18;;;;;;;22.19;60.55;100988.06;4973454;28;20411;-71
2021/06/10 06:49:09;;;;;;;13.95;12.55;;;;;;;22.49;59.49;100991.09;4973411;28;20395;-71
2021/06/10 06:51:35;;;;;;;14.18;12.73;;;;;;;22.44;60.03;100986.88;4973298;28;20510;-71
2021/06/10 06:54:00;;;;;;;20.05;17.77;;;;;;;22.37;60.45;100986.31;4973189;28;20046;-71
2021/06/10 06:56:26;;;;;;;19.77;17.85;;;;;;;22.48;59.79;100993.88;4973239;28;20030;-71
2021/06/10 06:58:51;;;;;;;13.52;12.23;;;;;;;22.64;59.75;100991.31;4972483;28;20177;-71
2021/06/10 07:01:16;;;;;;;14.27;12.88;;;;;;;22.70;59.87;100989.16;4972947;28;20517;-71
2021/06/10 07:03:42;;;;;;;16.58;14.13;;;;;;;22.85;58.68;100998.31;4972882;28;20512;-71
2021/06/10 07:06:08;;;;;;;14.10;12.70;;;;;;;22.87;58.65;100990.16;4972522;28;20057;-71
2021/06/10 07:08:33;;;;;;;15.20;13.70;;;;;;;22.83;58.69;100988.56;4968533;28;20507;-71
2021/06/10 07:10:58;;;;;;;14.95;13.35;;;;;;;22.81;59.46;100991.31;4970903;28;20057;-71
2021/06/10 07:13:25;;;;;;;14.48;12.80;;;;;;;22.83;58.92;101002.03;4972482;28;20047;-71
2021/06/10 07:15:51;;;;;;;11.23;10.20;;;;;;;22.63;57.36;100998.47;4973063;28;20035;-70
2021/06/10 07:18:16;;;;;;;11.88;10.23;;;;;;;22.48;58.52;101000.13;4972700;28;20519;-71
2021/06/10 07:20:42;;;;;;;10.18;9.18;;;;;;;22.31;58.93;101003.59;4973033;28;20490;-71
2021/06/10 07:23:08;;;;;;;9.73;8.68;;;;;;;22.43;59.07;101004.84;4968772;28;20486;-71
2021/06/10 07:25:33;;;;;;;10.43;9.35;;;;;;;22.49;58.15;101007.22;4972699;28;20518;-71
2021/06/10 07:27:58;;;;;;;10.05;9.05;;;;;;;22.48;58.29;101008.19;4972671;28;20490;-71
2021/06/10 07:30:24;;;;;;;11.00;9.90;;;;;;;22.45;57.31;101010.13;4972894;28;20026;-71
2021/06/10 07:32:49;;;;;;;9.63;8.73;;;;;;;22.39;57.60;101016.69;4972280;28;20513;-71
2021/06/10 07:35:20;;;;;;;12.20;10.93;;;;;;;22.50;56.80;101019.72;4973043;28;20039;-71
2021/06/10 07:37:46;;;;;;;10.95;9.73;;;;;;;22.52;56.56;101006.22;4972744;28;20039;-71
2021/06/10 07:40:11;;;;;;;10.98;9.88;;;;;;;22.68;57.20;101007.19;4972625;28;20027;-71
2021/06/10 07:42:37;;;;;;;10.93;9.82;;;;;;;22.87;57.01;101006.28;4966082;28;20685;-71
2021/06/10 07:45:02;;;;;;;13.30;10.75;;;;;;;23.09;57.04;101007.00;4972382;28;20043;-71
2021/06/10 07:47:28;;;;;;;11.82;10.70;;;;;;;23.35;56.06;101004.81;4972287;28;20126;-71
2021/06/10 07:49:53;;;;;;;10.65;9.65;;;;;;;23.57;56.35;101005.41;4972390;28;20046;-71
2021/06/10 07:52:18;;;;;;;13.48;10.95;;;;;;;23.70;56.41;100997.53;4972011;28;20042;-71
2021/06/10 07:54:44;;;;;;;10.35;9.32;;;;;;;23.91;55.28;101010.84;4972519;28;20034;-71
2021/06/10 07:57:09;;;;;;;15.88;10.57;;;;;;;23.80;55.50;100997.94;4972338;28;20109;-71
2021/06/10 07:59:35;;;;;;;10.13;9.13;;;;;;;23.87;56.18;101003.88;4972242;28;20177;-71
2021/06/10 08:02:01;;;;;;;10.35;9.25;;;;;;;23.75;55.97;100991.94;4971959;28;20384;-71
2021/06/10 08:04:26;;;;;;;9.88;8.90;;;;;;;23.60;57.03;100991.75;4972275;28;20043;-71
2021/06/10 08:06:51;;;;;;;10.32;8.77;;;;;;;23.63;56.76;100988.94;4972410;28;20495;-71
2021/06/10 08:09:17;;;;;;;11.25;9.60;;;;;;;23.61;56.91;100995.34;4971104;28;20414;-71
2021/06/10 08:11:44;;;;;;;11.07;9.63;;;;;;;23.53;57.02;100989.50;4974118;28;20027;-71
2021/06/10 08:14:09;;;;;;;11.55;10.20;;;;;;;23.72;56.89;100986.72;4978481;28;20039;-71
2021/06/10 08:16:35;;;;;;;11.48;9.00;;;;;;;23.92;56.17;100982.94;4978240;28;20442;-71
2021/06/10 08:19:01;;;;;;;11.02;8.80;;;;;;;24.06;55.26;100977.66;4978649;28;20042;-71
2021/06/10 08:21:27;;;;;;;8.35;7.45;;;;;;;24.42;52.89;100984.66;4978441;28;20129;-71
2021/06/10 08:23:52;;;;;;;10.30;7.40;;;;;;;24.53;52.46;100971.44;4978270;28;20070;-72
2021/06/10 08:26:18;;;;;;;8.18;7.30;;;;;;;24.87;50.71;100978.44;4971714;28;20646;-71
2021/06/10 08:28:43;;;;;;;7.50;6.70;;;;;;;25.02;50.45;100983.88;4978564;28;20042;-71
2021/06/10 08:31:09;;;;;;;9.20;8.18;;;;;;;25.17;50.09;100984.84;4978338;28;20121;-71
2021/06/10 08:33:36;;;;;;;10.48;9.27;;;;;;;25.45;49.57;100981.34;4977967;28;20045;-72
2021/06/10 08:36:05;;;;;;;7.53;6.53;;;;;;;25.76;47.14;100983.88;4978251;28;20384;-71
2021/06/10 08:38:30;;;;;;;7.30;6.38;;;;;;;26.15;47.10;100974.25;4978466;28;20034;-71
2021/06/10 08:40:56;;;;;;;8.02;6.72;;;;;;;26.51;46.40;100967.38;4978337;28;20034;-71
2021/06/10 08:43:22;;;;;;;8.85;8.05;;;;;;;26.72;46.33;100965.13;4978104;28;20034;-71
2021/06/10 08:46:12;;;;;;;11.35;7.75;;;;;;;26.49;44.91;100963.03;4978116;28;20042;-71
2021/06/10 08:48:42;;;;;;;7.07;6.38;;;;;;;26.00;46.59;100964.41;4978026;28;20038;-71
2021/06/10 08:51:10;;;;;;;6.97;6.23;;;;;;;26.05;47.57;100959.56;4960801;28;20506;-71
2021/06/10 08:53:35;;;;;;;7.40;6.00;;;;;;;25.99;46.42;100968.06;4977914;28;20351;-71
2021/06/10 08:56:01;;;;;;;6.90;5.07;;;;;;;25.58;46.04;100961.56;4978084;28;20487;-71
2021/06/10 08:58:29;;;;;;;5.85;5.30;;;;;;;25.38;46.57;100961.91;4974045;28;20039;-71
2021/06/10 09:00:55;;;;;;;9.85;7.22;;;;;;;25.06;47.57;100964.72;4977110;28;20109;-71
2021/06/10 09:03:22;;;;;;;8.13;6.28;;;;;;;24.96;47.65;100950.03;4977658;28;20049;-71
2021/06/10 09:06:08;;;;;;;6.57;5.97;;;;;;;24.70;48.64;100959.66;4977849;28;20134;-71
2021/06/10 09:08:35;;;;;;;7.93;6.90;;;;;;;24.68;49.05;100961.56;4977929;28;20089;-71
2021/06/10 09:11:04;;;;;;;9.60;8.60;;;;;;;24.68;50.72;100975.06;4977971;28;20038;-71
2021/06/10 09:13:38;;;;;;;13.13;11.80;;;;;;;24.37;51.39;100993.00;4977674;28;20078;-72
2021/06/10 09:16:25;;;;;;;31.67;11.70;;;;;;;24.09;51.82;100996.34;4977779;28;20043;-72
2021/06/10 09:18:52;;;;;;;12.50;11.13;;;;;;;23.99;51.56;101003.22;4977275;28;20077;-71
2021/06/10 09:21:25;;;;;;;14.48;12.98;;;;;;;23.84;51.84;100994.13;4970513;28;20086;-72
2021/06/10 09:23:50;;;;;;;14.38;11.60;;;;;;;23.59;51.48;100995.41;4967978;28;20070;-72
2021/06/10 09:26:16;;;;;;;15.25;11.25;;;;;;;23.39;51.90;101003.66;4967264;28;20031;-72
2021/06/10 09:28:43;;;;;;;10.73;9.60;;;;;;;23.24;51.71;100999.97;4968059;28;20047;-72
2021/06/10 09:31:08;;;;;;;10.73;9.65;;;;;;;23.12;51.81;100997.91;4966617;28;20054;-71
2021/06/10 09:33:42;;;;;;;14.10;12.60;;;;;;;23.08;52.37;101005.28;4964334;28;20391;-72
2021/06/10 09:36:14;;;;;;;12.82;11.52;;;;;;;23.05;52.33;100997.31;4967198;28;20031;-72
2021/06/10 09:38:40;;;;;;;10.73;9.73;;;;;;;22.99;52.67;101000.34;4968622;28;20046;-71
2021/06/10 09:41:06;;;;;;;9.85;8.88;;;;;;;22.89;53.09;101005.25;4966493;28;20042;-72
2021/06/10 09:43:43;;;;;;;10.55;9.43;;;;;;;22.84;52.87;101006.44;4966420;28;20058;-72
2021/06/10 09:46:08;;;;;;;10.95;9.85;;;;;;;22.83;52.90;101004.72;4965654;28;20035;-72
2021/06/10 09:48:34;;;;;;;8.68;7.35;;;;;;;22.80;52.73;101007.56;4965023;28;20033;-72
2021/06/10 09:51:00;;;;;;;11.55;10.35;;;;;;;22.78;52.34;101006.75;4974393;28;20049;-72
2021/06/10 09:53:29;;;;;;;10.38;7.28;;;;;;;22.86;52.88;101021.56;4974263;28;20058;-72
2021/06/10 09:56:05;;;;;;;8.32;7.53;;;;;;;22.93;52.81;101028.41;4973600;28;20038;-72
2021/06/10 09:58:41;;;;;;;10.05;9.05;;;;;;;22.93;53.15;101030.22;4972745;28;20121;-72
2021/06/10 10:01:15;;;;;;;11.80;10.02;;;;;;;22.96;53.16;101043.53;4974419;28;20041;-72
2021/06/10 10:03:49;;;;;;;8.70;6.50;;;;;;;22.92;53.35;101045.50;4969095;28;20042;-72
2021/06/10 10:06:26;;;;;;;8.65;6.00;;;;;;;22.74;55.87;101051.75;4968416;28;20034;-71
2021/06/10 10:09:05;;;;;;;8.98;6.97;;;;;;;22.71;56.93;101050.09;4973857;28;20046;-72
2021/06/10 10:11:33;;;;;;;8.10;6.25;;;;;;;22.89;57.17;101036.69;4973880;28;20045;-74
2021/06/10 10:14:01;;;;;;;9.15;7.90;;;;;;;23.06;56.88;101028.69;4970072;28;20369;-71
2021/06/10 10:16:28;;;;;;;8.85;7.95;;;;;;;23.42;55.79;101014.28;4964676;28;20031;-71
2021/06/10 10:18:55;;;;;;;9.30;7.68;;;;;;;23.83;55.72;101013.97;4962986;28;20042;-71
2021/06/10 10:21:27;;;;;;;9.63;7.30;;;;;;;24.20;55.01;101002.03;4960634;28;20066;-71
2021/06/10 10:24:01;;;;;;;7.65;6.22;;;;;;;24.61;53.41;100995.28;4973563;28;20042;-71
2021/06/10 10:26:30;;;;;;;12.77;10.23;;;;;;;25.02;53.03;100997.38;4973690;28;20090;-71
2021/06/10 10:28:57;;;;;;;7.57;6.78;;;;;;;25.31;52.15;100996.56;4971429;28;20142;-71
2021/06/10 10:31:24;;;;;;;9.50;8.32;;;;;;;25.60;51.87;101002.03;4969558;28;20435;-72
2021/06/10 10:33:50;;;;;;;8.65;7.57;;;;;;;25.92;51.25;101001.88;4969856;28;20050;-71
2021/06/10 10:36:23;;;;;;;8.63;5.60;;;;;;;26.04;51.31;101000.22;4973608;28;20039;-72
2021/06/10 10:38:58;;;;;;;8.40;5.57;;;;;;;26.09;51.50;100995.38;4973556;28;20038;-71
2021/06/10 10:41:24;;;;;;;6.40;5.63;;;;;;;26.30;52.04;100988.59;4970705;28;20506;-72
2021/06/10 10:43:50;;;;;;;9.25;7.03;;;;;;;26.41;50.93;100977.97;4973320;28;20027;-71
2021/06/10 10:46:19;;;;;;;7.90;7.20;;;;;;;26.49;50.98;100979.28;4973330;28;20027;-71
2021/06/10 10:48:46;;;;;;;8.60;7.80;;;;;;;26.61;50.46;100973.94;4967826;28;20038;-72
2021/06/10 10:51:30;;;;;;;9.85;6.13;;;;;;;26.58;51.10;100971.47;4968886;28;20045;-72
2021/06/10 10:54:00;;;;;;;7.93;6.68;;;;;;;26.81;50.60;100974.47;4973045;28;20521;-72
2021/06/10 10:56:44;;;;;;;9.05;7.20;;;;;;;26.88;48.91;100960.44;4967910;28;20043;-71
2021/06/10 10:59:14;;;;;;;6.60;6.00;;;;;;;26.70;47.98;100960.78;4969388;28;20038;-72
2021/06/10 11:01:41;;;;;;;9.02;7.45;;;;;;;26.89;47.07;100954.03;4972712;28;20089;-72
2021/06/10 11:04:07;;;;;;;13.05;11.63;;;;;;;27.08;46.25;100948.22;4972640;28;20458;-71
2021/06/10 11:06:34;;;;;;;9.10;8.30;;;;;;;27.27;45.33;100946.97;4972232;28;20565;-71
2021/06/10 11:09:11;;;;;;;11.13;10.07;;;;;;;27.62;44.41;100954.47;4972995;28;20043;-71
2021/06/10 11:11:51;;;;;;;9.32;7.57;;;;;;;27.74;44.22;100959.00;4972725;28;20113;-72
2021/06/10 11:14:52;;;;;;;16.80;15.20;;;;;;;28.00;43.35;100949.03;4971482;28;20035;-72
2021/06/10 11:17:45;;;;;;;16.02;14.52;;;;;;;28.13;43.45;100954.44;4969861;28;20152;-71